sensor_id;sensor_type;location;lat;lon;timestamp;pressure;altitude;pressure_sealevel;temperature;humidity
54856;BME280;40748;53.168;5.800;2023-02-10T00:01:47;103381.18999999999;;;1.81;88.44
54856;BME280;40748;53.168;5.800;2023-02-10T00:06:47;103378.33;;;1.82;88.50
54856;BME280;40748;53.168;5.800;2023-02-10T00:09:17;103374.37999999999;;;1.84;88.99
54856;BME280;40748;53.168;5.800;2023-02-10T00:11:47;103369.35;;;1.81;89.06
54856;BME280;40748;53.168;5.800;2023-02-10T00:14:18;103376.25;;;1.73;89.23
54856;BME280;40748;53.168;5.800;2023-02-10T00:16:48;103379.68000000001;;;1.74;89.51
54856;BME280;40748;53.168;5.800;2023-02-10T00:19:17;103379.45999999999;;;1.84;89.69
54856;BME280;40748;53.168;5.800;2023-02-10T00:21:47;103383.06;;;1.87;89.75
54856;BME280;40748;53.168;5.800;2023-02-10T00:24:18;103384.86;;;1.88;89.84
54856;BME280;40748;53.168;5.800;2023-02-10T00:26:47;103384.57;;;1.83;89.75
54856;BME280;40748;53.168;5.800;2023-02-10T00:29:17;103385.56000000001;;;1.82;90.27
54856;BME280;40748;53.168;5.800;2023-02-10T00:31:47;103386.1;;;1.86;90.58
54856;BME280;40748;53.168;5.800;2023-02-10T00:34:17;103386.35999999999;;;1.87;90.51
54856;BME280;40748;53.168;5.800;2023-02-10T00:36:48;103395.13999999998;;;1.88;90.02
54856;BME280;40748;53.168;5.800;2023-02-10T00:39:17;103390.20000000001;;;1.94;90.19
54856;BME280;40748;53.168;5.800;2023-02-10T00:41:47;103397.40999999999;;;1.89;90.08
54856;BME280;40748;53.168;5.800;2023-02-10T00:46:47;103402.51000000001;;;1.94;90.48
54856;BME280;40748;53.168;5.800;2023-02-10T00:49:17;103401.62;;;1.98;90.44
54856;BME280;40748;53.168;5.800;2023-02-10T00:51:47;103404.06;;;2.00;90.34
54856;BME280;40748;53.168;5.800;2023-02-10T00:54:17;103400.51000000001;;;1.98;90.37
54856;BME280;40748;53.168;5.800;2023-02-10T00:59:17;103406.52;;;1.96;90.32
54856;BME280;40748;53.168;5.800;2023-02-10T01:01:47;103412.9;;;1.97;90.32
54856;BME280;40748;53.168;5.800;2023-02-10T01:04:17;103411.18;;;1.99;90.25
54856;BME280;40748;53.168;5.800;2023-02-10T01:06:47;103406.62999999999;;;1.97;90.12
54856;BME280;40748;53.168;5.800;2023-02-10T01:09:17;103411.6;;;1.94;89.84
54856;BME280;40748;53.168;5.800;2023-02-10T01:14:17;103407.41;;;1.89;89.82
54856;BME280;40748;53.168;5.800;2023-02-10T01:19:17;103414.49;;;1.92;90.33
54856;BME280;40748;53.168;5.800;2023-02-10T01:24:17;103410.97;;;1.94;90.49
54856;BME280;40748;53.168;5.800;2023-02-10T01:26:47;103408.40000000001;;;1.93;90.32
54856;BME280;40748;53.168;5.800;2023-02-10T01:29:17;103404.73999999999;;;1.94;90.58
54856;BME280;40748;53.168;5.800;2023-02-10T01:36:47;103403.37;;;1.91;90.30
54856;BME280;40748;53.168;5.800;2023-02-10T01:39:17;103404.9;;;1.89;90.20
54856;BME280;40748;53.168;5.800;2023-02-10T01:41:47;103413.01000000001;;;1.91;90.44
54856;BME280;40748;53.168;5.800;2023-02-10T01:46:48;103430.54;;;1.93;90.71
54856;BME280;40748;53.168;5.800;2023-02-10T01:49:18;103436.51;;;1.87;90.76
54856;BME280;40748;53.168;5.800;2023-02-10T01:56:47;103429.85;;;1.91;90.60
54856;BME280;40748;53.168;5.800;2023-02-10T01:59:17;103430.87000000001;;;1.89;90.62
54856;BME280;40748;53.168;5.800;2023-02-10T02:01:47;103431.14;;;1.91;90.62
54856;BME280;40748;53.168;5.800;2023-02-10T02:04:17;103431.41;;;1.89;90.70
54856;BME280;40748;53.168;5.800;2023-02-10T02:06:47;103429.38999999998;;;1.85;90.76
54856;BME280;40748;53.168;5.800;2023-02-10T02:09:17;103424.22999999998;;;1.89;91.00
54856;BME280;40748;53.168;5.800;2023-02-10T02:11:48;103419.01000000001;;;1.92;90.96
54856;BME280;40748;53.168;5.800;2023-02-10T02:14:21;103419.35;;;1.88;91.03
54856;BME280;40748;53.168;5.800;2023-02-10T02:16:51;103417.4;;;1.90;91.00
54856;BME280;40748;53.168;5.800;2023-02-10T02:19:26;103417.75;;;1.88;90.95
54856;BME280;40748;53.168;5.800;2023-02-10T02:21:55;103420.89000000001;;;1.91;90.89
54856;BME280;40748;53.168;5.800;2023-02-10T02:24:21;103431.36;;;1.90;90.84
54856;BME280;40748;53.168;5.800;2023-02-10T02:26:50;103429.38999999998;;;1.91;90.45
54856;BME280;40748;53.168;5.800;2023-02-10T02:29:25;103421.84;;;1.90;90.66
54856;BME280;40748;53.168;5.800;2023-02-10T02:31:49;103423.28;;;1.87;90.85
54856;BME280;40748;53.168;5.800;2023-02-10T02:34:18;103420.68;;;1.84;90.72
54856;BME280;40748;53.168;5.800;2023-02-10T02:36:48;103423.57999999999;;;1.82;90.96
54856;BME280;40748;53.168;5.800;2023-02-10T02:39:17;103418.08000000002;;;1.80;91.11
54856;BME280;40748;53.168;5.800;2023-02-10T02:41:47;103422.8;;;1.86;91.42
54856;BME280;40748;53.168;5.800;2023-02-10T02:44:17;103426.2;;;1.78;91.39
54856;BME280;40748;53.168;5.800;2023-02-10T02:46:49;103424.45;;;1.86;91.44
54856;BME280;40748;53.168;5.800;2023-02-10T02:49:20;103418.76;;;1.89;91.60
54856;BME280;40748;53.168;5.800;2023-02-10T02:51:48;103423.71;;;1.87;91.07
54856;BME280;40748;53.168;5.800;2023-02-10T02:54:20;103423.4;;;1.76;91.05
54856;BME280;40748;53.168;5.800;2023-02-10T02:56:49;103428.50000000001;;;1.82;91.55
54856;BME280;40748;53.168;5.800;2023-02-10T02:59:18;103429.18999999999;;;1.88;91.67
54856;BME280;40748;53.168;5.800;2023-02-10T03:01:49;103431.05;;;1.87;91.41
54856;BME280;40748;53.168;5.800;2023-02-10T03:04:17;103436.47;;;1.81;90.98
54856;BME280;40748;53.168;5.800;2023-02-10T03:06:47;103428.02999999998;;;1.83;91.15
54856;BME280;40748;53.168;5.800;2023-02-10T03:09:17;103433.94;;;1.84;91.18
54856;BME280;40748;53.168;5.800;2023-02-10T03:11:47;103441.41;;;1.81;91.41
54856;BME280;40748;53.168;5.800;2023-02-10T03:14:17;103433.7;;;1.73;91.48
54856;BME280;40748;53.168;5.800;2023-02-10T03:16:47;103430.81999999999;;;1.77;91.89
54856;BME280;40748;53.168;5.800;2023-02-10T03:19:17;103424.96;;;1.84;91.93
54856;BME280;40748;53.168;5.800;2023-02-10T03:21:47;103422.23;;;1.77;91.86
54856;BME280;40748;53.168;5.800;2023-02-10T03:26:47;103417.37000000001;;;1.80;91.94
54856;BME280;40748;53.168;5.800;2023-02-10T03:29:17;103413.87;;;1.79;92.14
54856;BME280;40748;53.168;5.800;2023-02-10T03:31:47;103412.68;;;1.82;92.04
54856;BME280;40748;53.168;5.800;2023-02-10T03:34:17;103417.11;;;1.86;91.95
54856;BME280;40748;53.168;5.800;2023-02-10T03:39:17;103421.37;;;1.87;92.06
54856;BME280;40748;53.168;5.800;2023-02-10T03:41:47;103420.81000000001;;;1.81;91.95
54856;BME280;40748;53.168;5.800;2023-02-10T03:44:17;103426.38999999998;;;1.80;92.12
54856;BME280;40748;53.168;5.800;2023-02-10T03:46:47;103421.94;;;1.85;92.30
54856;BME280;40748;53.168;5.800;2023-02-10T03:49:17;103421.94;;;1.84;92.15
54856;BME280;40748;53.168;5.800;2023-02-10T03:51:47;103420.94;;;1.83;91.87
54856;BME280;40748;53.168;5.800;2023-02-10T03:56:47;103428.31000000001;;;1.85;91.58
54856;BME280;40748;53.168;5.800;2023-02-10T03:59:17;103430.56999999999;;;1.81;91.65
54856;BME280;40748;53.168;5.800;2023-02-10T04:01:47;103428.99;;;1.82;91.79
54856;BME280;40748;53.168;5.800;2023-02-10T04:04:17;103426.32;;;1.83;92.02
54856;BME280;40748;53.168;5.800;2023-02-10T04:06:47;103423.13999999998;;;1.86;92.26
54856;BME280;40748;53.168;5.800;2023-02-10T04:09:17;103422.85999999999;;;1.87;92.07
54856;BME280;40748;53.168;5.800;2023-02-10T04:11:49;103424.84999999999;;;1.85;92.14
54856;BME280;40748;53.168;5.800;2023-02-10T04:14:17;103425.01;;;1.84;91.91
54856;BME280;40748;53.168;5.800;2023-02-10T04:16:47;103426.14000000001;;;1.80;91.50
54856;BME280;40748;53.168;5.800;2023-02-10T04:19:17;103428.64;;;1.76;91.99
54856;BME280;40748;53.168;5.800;2023-02-10T04:21:47;103418.68999999999;;;1.79;92.30
54856;BME280;40748;53.168;5.800;2023-02-10T04:24:17;103412.70999999999;;;1.78;92.48
54856;BME280;40748;53.168;5.800;2023-02-10T04:26:47;103411.22;;;1.85;92.76
54856;BME280;40748;53.168;5.800;2023-02-10T04:29:17;103410.53;;;1.87;92.67
54856;BME280;40748;53.168;5.800;2023-02-10T04:34:17;103415.48;;;1.79;92.71
54856;BME280;40748;53.168;5.800;2023-02-10T04:36:47;103417.03;;;1.85;93.12
54856;BME280;40748;53.168;5.800;2023-02-10T04:39:17;103419.27;;;1.89;93.30
54856;BME280;40748;53.168;5.800;2023-02-10T04:44:17;103415.00000000001;;;1.92;93.08
54856;BME280;40748;53.168;5.800;2023-02-10T04:46:47;103411.28000000001;;;1.95;93.22
54856;BME280;40748;53.168;5.800;2023-02-10T04:49:17;103411.5;;;1.93;93.22
54856;BME280;40748;53.168;5.800;2023-02-10T04:51:47;103413.29000000001;;;1.96;93.20
54856;BME280;40748;53.168;5.800;2023-02-10T04:56:47;103417.5;;;1.97;93.11
54856;BME280;40748;53.168;5.800;2023-02-10T04:59:17;103422.09;;;1.93;93.39
54856;BME280;40748;53.168;5.800;2023-02-10T05:01:47;103429.33;;;1.97;94.03
54856;BME280;40748;53.168;5.800;2023-02-10T05:04:17;103426.17;;;1.95;93.80
54856;BME280;40748;53.168;5.800;2023-02-10T05:06:47;103428.16;;;2.00;93.76
54856;BME280;40748;53.168;5.800;2023-02-10T05:09:17;103426.34000000001;;;2.02;93.92
54856;BME280;40748;53.168;5.800;2023-02-10T05:14:17;103421.83;;;2.03;93.64
54856;BME280;40748;53.168;5.800;2023-02-10T05:16:47;103421.83;;;2.07;93.64
54856;BME280;40748;53.168;5.800;2023-02-10T05:19:17;103417.59;;;2.08;93.66
54856;BME280;40748;53.168;5.800;2023-02-10T05:24:17;103415.22;;;2.15;94.14
54856;BME280;40748;53.168;5.800;2023-02-10T05:26:47;103426.01;;;2.20;93.83
54856;BME280;40748;53.168;5.800;2023-02-10T05:29:17;103426.01;;;2.26;93.83
54856;BME280;40748;53.168;5.800;2023-02-10T05:34:17;103434.3;;;2.24;93.50
54856;BME280;40748;53.168;5.800;2023-02-10T05:39:17;103439.81000000001;;;2.30;94.05
54856;BME280;40748;53.168;5.800;2023-02-10T05:41:47;103440.39;;;2.29;93.74
54856;BME280;40748;53.168;5.800;2023-02-10T05:44:17;103443.43;;;2.35;93.56
54856;BME280;40748;53.168;5.800;2023-02-10T05:46:47;103447.49999999999;;;2.38;93.60
54856;BME280;40748;53.168;5.800;2023-02-10T05:49:17;103448.20999999999;;;2.37;93.39
54856;BME280;40748;53.168;5.800;2023-02-10T05:51:47;103454.20999999999;;;2.42;93.46
54856;BME280;40748;53.168;5.800;2023-02-10T05:54:17;103452.93999999999;;;2.45;93.40
54856;BME280;40748;53.168;5.800;2023-02-10T05:56:47;103455.87000000001;;;2.44;93.24
54856;BME280;40748;53.168;5.800;2023-02-10T05:59:17;103456.96;;;2.43;93.11
54856;BME280;40748;53.168;5.800;2023-02-10T06:01:47;103450.93;;;2.42;92.95
54856;BME280;40748;53.168;5.800;2023-02-10T06:04:17;103451.33;;;2.43;93.01
54856;BME280;40748;53.168;5.800;2023-02-10T06:06:47;103450.11;;;2.46;93.28
54856;BME280;40748;53.168;5.800;2023-02-10T06:09:17;103445.3;;;2.43;93.37
54856;BME280;40748;53.168;5.800;2023-02-10T06:11:47;103445.62000000001;;;2.48;93.94
54856;BME280;40748;53.168;5.800;2023-02-10T06:14:17;103449.6;;;2.54;94.36
54856;BME280;40748;53.168;5.800;2023-02-10T06:16:47;103447.56;;;2.60;94.30
54856;BME280;40748;53.168;5.800;2023-02-10T06:19:17;103447.45;;;2.59;94.48
54856;BME280;40748;53.168;5.800;2023-02-10T06:21:48;103455.46999999999;;;2.64;94.53
54856;BME280;40748;53.168;5.800;2023-02-10T06:24:17;103449.78000000001;;;2.69;94.81
54856;BME280;40748;53.168;5.800;2023-02-10T06:26:47;103451.37999999999;;;2.63;94.46
54856;BME280;40748;53.168;5.800;2023-02-10T06:29:17;103451.50000000001;;;2.74;95.53
54856;BME280;40748;53.168;5.800;2023-02-10T06:31:47;103459.81;;;2.79;94.78
54856;BME280;40748;53.168;5.800;2023-02-10T06:39:17;103457.48000000001;;;2.81;95.07
54856;BME280;40748;53.168;5.800;2023-02-10T06:41:47;103462.7;;;2.82;94.93
54856;BME280;40748;53.168;5.800;2023-02-10T06:44:17;103466.75;;;2.86;94.76
54856;BME280;40748;53.168;5.800;2023-02-10T06:46:47;103472.0;;;2.89;94.60
54856;BME280;40748;53.168;5.800;2023-02-10T06:49:17;103461.9;;;2.88;94.42
54856;BME280;40748;53.168;5.800;2023-02-10T06:51:47;103462.98999999999;;;2.84;94.27
54856;BME280;40748;53.168;5.800;2023-02-10T06:56:47;103472.83;;;2.86;94.27
54856;BME280;40748;53.168;5.800;2023-02-10T06:59:17;103472.83;;;2.81;94.27
54856;BME280;40748;53.168;5.800;2023-02-10T07:01:47;103474.99;;;2.80;94.27
54856;BME280;40748;53.168;5.800;2023-02-10T07:04:17;103477.16;;;2.81;94.15
54856;BME280;40748;53.168;5.800;2023-02-10T07:06:47;103473.68;;;2.77;94.13
54856;BME280;40748;53.168;5.800;2023-02-10T07:09:17;103475.51000000001;;;2.76;94.50
54856;BME280;40748;53.168;5.800;2023-02-10T07:11:47;103477.74999999999;;;2.80;94.27
54856;BME280;40748;53.168;5.800;2023-02-10T07:14:17;103477.74999999999;;;2.79;94.30
54856;BME280;40748;53.168;5.800;2023-02-10T07:16:47;103474.15000000001;;;2.78;94.06
54856;BME280;40748;53.168;5.800;2023-02-10T07:21:47;103486.71999999999;;;2.79;94.26
54856;BME280;40748;53.168;5.800;2023-02-10T07:24:17;103487.70999999999;;;2.78;94.30
54856;BME280;40748;53.168;5.800;2023-02-10T07:29:17;103483.34999999999;;;2.69;94.66
54856;BME280;40748;53.168;5.800;2023-02-10T07:31:47;103476.43000000001;;;2.78;95.51
54856;BME280;40748;53.168;5.800;2023-02-10T07:34:17;103479.98;;;2.86;95.38
54856;BME280;40748;53.168;5.800;2023-02-10T07:39:17;103487.51;;;2.92;95.11
54856;BME280;40748;53.168;5.800;2023-02-10T07:41:47;103491.36000000002;;;2.99;94.88
54856;BME280;40748;53.168;5.800;2023-02-10T07:46:47;103494.52000000002;;;3.09;95.25
54856;BME280;40748;53.168;5.800;2023-02-10T07:49:19;103498.38;;;3.12;95.31
54856;BME280;40748;53.168;5.800;2023-02-10T07:51:47;103498.38;;;3.20;95.31
54856;BME280;40748;53.168;5.800;2023-02-10T07:54:17;103499.62000000001;;;3.25;95.06
54856;BME280;40748;53.168;5.800;2023-02-10T07:56:47;103502.51000000001;;;3.26;94.70
54856;BME280;40748;53.168;5.800;2023-02-10T07:59:17;103500.55;;;3.31;94.96
54856;BME280;40748;53.168;5.800;2023-02-10T08:01:47;103500.15000000001;;;3.35;94.80
54856;BME280;40748;53.168;5.800;2023-02-10T08:04:17;103501.23000000001;;;3.41;95.03
54856;BME280;40748;53.168;5.800;2023-02-10T08:06:47;103497.38;;;3.43;94.87
54856;BME280;40748;53.168;5.800;2023-02-10T08:09:17;103497.81;;;3.48;94.84
54856;BME280;40748;53.168;5.800;2023-02-10T08:11:47;103500.05000000002;;;3.59;95.09
54856;BME280;40748;53.168;5.800;2023-02-10T08:14:17;103495.92;;;3.58;95.01
54856;BME280;40748;53.168;5.800;2023-02-10T08:16:47;103496.75;;;3.65;95.16
54856;BME280;40748;53.168;5.800;2023-02-10T08:19:17;103493.92;;;3.68;95.00
54856;BME280;40748;53.168;5.800;2023-02-10T08:24:17;103489.31;;;3.77;94.98
54856;BME280;40748;53.168;5.800;2023-02-10T08:26:47;103486.43999999999;;;3.78;94.83
54856;BME280;40748;53.168;5.800;2023-02-10T08:29:17;103484.35999999999;;;3.82;94.95
54856;BME280;40748;53.168;5.800;2023-02-10T08:31:48;103486.83000000002;;;3.81;94.80
54856;BME280;40748;53.168;5.800;2023-02-10T08:34:18;103489.05;;;3.83;94.85
54856;BME280;40748;53.168;5.800;2023-02-10T08:36:47;103491.60999999999;;;3.76;94.89
54856;BME280;40748;53.168;5.800;2023-02-10T08:39:17;103490.3;;;3.81;94.94
54856;BME280;40748;53.168;5.800;2023-02-10T08:41:47;103495.84999999999;;;3.83;94.85
54856;BME280;40748;53.168;5.800;2023-02-10T08:44:17;103492.44000000002;;;3.81;94.81
54856;BME280;40748;53.168;5.800;2023-02-10T08:46:47;103492.15;;;3.89;94.99
54856;BME280;40748;53.168;5.800;2023-02-10T08:49:17;103494.1;;;3.91;94.76
54856;BME280;40748;53.168;5.800;2023-02-10T08:54:17;103496.45000000001;;;3.90;95.04
54856;BME280;40748;53.168;5.800;2023-02-10T08:56:48;103487.15;;;4.00;95.16
54856;BME280;40748;53.168;5.800;2023-02-10T08:59:17;103484.05;;;4.02;94.97
54856;BME280;40748;53.168;5.800;2023-02-10T09:01:47;103480.88;;;3.98;95.04
54856;BME280;40748;53.168;5.800;2023-02-10T09:04:17;103478.7;;;4.10;95.78
54856;BME280;40748;53.168;5.800;2023-02-10T09:06:47;103480.04000000001;;;4.23;95.67
54856;BME280;40748;53.168;5.800;2023-02-10T09:09:18;103482.13;;;4.33;95.44
54856;BME280;40748;53.168;5.800;2023-02-10T09:11:47;103482.06;;;4.41;95.72
54856;BME280;40748;53.168;5.800;2023-02-10T09:14:17;103493.31;;;4.51;95.65
54856;BME280;40748;53.168;5.800;2023-02-10T09:16:47;103487.43999999999;;;4.53;95.56
54856;BME280;40748;53.168;5.800;2023-02-10T09:19:17;103488.80999999998;;;4.62;95.79
54856;BME280;40748;53.168;5.800;2023-02-10T09:21:47;103487.87999999999;;;4.68;95.82
54856;BME280;40748;53.168;5.800;2023-02-10T09:24:17;103487.68;;;4.76;96.16
54856;BME280;40748;53.168;5.800;2023-02-10T09:26:47;103483.97;;;4.90;96.62
54856;BME280;40748;53.168;5.800;2023-02-10T09:31:47;103477.72;;;4.98;96.73
54856;BME280;40748;53.168;5.800;2023-02-10T09:34:17;103473.43000000001;;;5.12;96.79
54856;BME280;40748;53.168;5.800;2023-02-10T09:36:47;103476.65999999999;;;5.16;96.70
54856;BME280;40748;53.168;5.800;2023-02-10T09:39:17;103480.09;;;5.17;96.77
54856;BME280;40748;53.168;5.800;2023-02-10T09:41:50;103480.47999999998;;;5.23;96.91
54856;BME280;40748;53.168;5.800;2023-02-10T09:44:20;103479.92;;;5.29;96.79
54856;BME280;40748;53.168;5.800;2023-02-10T09:46:51;103484.79999999999;;;5.38;96.51
54856;BME280;40748;53.168;5.800;2023-02-10T09:49:22;103480.04000000001;;;5.43;96.36
54856;BME280;40748;53.168;5.800;2023-02-10T09:51:50;103480.96;;;5.45;96.54
54856;BME280;40748;53.168;5.800;2023-02-10T09:54:17;103485.63999999998;;;5.51;96.84
54856;BME280;40748;53.168;5.800;2023-02-10T09:59:18;103486.01000000001;;;5.60;97.04
54856;BME280;40748;53.168;5.800;2023-02-10T10:01:49;103478.54999999999;;;5.67;96.89
54856;BME280;40748;53.168;5.800;2023-02-10T10:04:18;103479.9;;;5.69;96.94
54856;BME280;40748;53.168;5.800;2023-02-10T10:06:48;103492.93000000001;;;5.76;97.15
54856;BME280;40748;53.168;5.800;2023-02-10T10:09:21;103490.38;;;5.85;97.17
54856;BME280;40748;53.168;5.800;2023-02-10T10:11:48;103491.92;;;5.88;96.94
54856;BME280;40748;53.168;5.800;2023-02-10T10:14:18;103494.29000000001;;;5.93;97.36
54856;BME280;40748;53.168;5.800;2023-02-10T10:16:55;103496.28;;;5.91;97.53
54856;BME280;40748;53.168;5.800;2023-02-10T10:19:20;103493.51;;;6.09;98.60
54856;BME280;40748;53.168;5.800;2023-02-10T10:21:50;103495.3;;;6.20;98.08
54856;BME280;40748;53.168;5.800;2023-02-10T10:24:24;103491.04999999999;;;6.16;97.82
54856;BME280;40748;53.168;5.800;2023-02-10T10:26:50;103495.94;;;6.25;98.46
54856;BME280;40748;53.168;5.800;2023-02-10T10:29:20;103491.1;;;6.30;98.32
54856;BME280;40748;53.168;5.800;2023-02-10T10:31:49;103505.25;;;6.41;98.29
54856;BME280;40748;53.168;5.800;2023-02-10T10:34:18;103505.37999999999;;;6.44;98.17
54856;BME280;40748;53.168;5.800;2023-02-10T10:36:48;103504.79000000001;;;6.45;98.15
54856;BME280;40748;53.168;5.800;2023-02-10T10:39:21;103500.37999999999;;;6.44;98.72
54856;BME280;40748;53.168;5.800;2023-02-10T10:41:47;103497.34000000001;;;6.60;99.34
54856;BME280;40748;53.168;5.800;2023-02-10T10:44:17;103491.58;;;6.63;98.52
54856;BME280;40748;53.168;5.800;2023-02-10T10:46:48;103496.91;;;6.54;98.74
54856;BME280;40748;53.168;5.800;2023-02-10T10:49:17;103490.22;;;6.45;99.53
54856;BME280;40748;53.168;5.800;2023-02-10T10:51:48;103493.14;;;6.69;99.51
54856;BME280;40748;53.168;5.800;2023-02-10T10:54:19;103485.05;;;6.65;99.78
54856;BME280;40748;53.168;5.800;2023-02-10T10:56:48;103485.05;;;6.85;99.78
54856;BME280;40748;53.168;5.800;2023-02-10T10:59:18;103487.70999999999;;;6.90;99.00
54856;BME280;40748;53.168;5.800;2023-02-10T11:01:48;103490.15999999999;;;6.98;99.19
54856;BME280;40748;53.168;5.800;2023-02-10T11:04:18;103484.63999999998;;;6.95;98.85
54856;BME280;40748;53.168;5.800;2023-02-10T11:06:48;103489.27;;;7.08;98.97
54856;BME280;40748;53.168;5.800;2023-02-10T11:09:21;103488.51;;;7.22;98.70
54856;BME280;40748;53.168;5.800;2023-02-10T11:11:47;103488.51;;;7.20;98.70
54856;BME280;40748;53.168;5.800;2023-02-10T11:14:21;103481.91999999998;;;7.30;98.62
54856;BME280;40748;53.168;5.800;2023-02-10T11:16:48;103477.47;;;7.33;98.70
54856;BME280;40748;53.168;5.800;2023-02-10T11:19:19;103469.82;;;7.52;98.96
54856;BME280;40748;53.168;5.800;2023-02-10T11:21:47;103468.2;;;7.50;98.63
54856;BME280;40748;53.168;5.800;2023-02-10T11:24:19;103478.69;;;7.58;99.00
54856;BME280;40748;53.168;5.800;2023-02-10T11:26:56;103473.76999999999;;;7.82;99.06
54856;BME280;40748;53.168;5.800;2023-02-10T11:29:17;103470.56;;;7.95;98.87
54856;BME280;40748;53.168;5.800;2023-02-10T11:31:50;103460.41;;;8.07;99.03
54856;BME280;40748;53.168;5.800;2023-02-10T11:34:19;103457.3;;;8.30;98.59
54856;BME280;40748;53.168;5.800;2023-02-10T11:36:47;103457.57;;;8.64;99.23
54856;BME280;40748;53.168;5.800;2023-02-10T11:39:20;103455.82999999999;;;8.91;100.00
54856;BME280;40748;53.168;5.800;2023-02-10T11:44:22;103466.48;;;9.25;98.20
54856;BME280;40748;53.168;5.800;2023-02-10T11:46:53;103451.9;;;9.45;98.75
54856;BME280;40748;53.168;5.800;2023-02-10T11:49:17;103441.43999999999;;;9.85;98.36
54856;BME280;40748;53.168;5.800;2023-02-10T11:51:50;103440.91;;;9.90;99.73
54856;BME280;40748;53.168;5.800;2023-02-10T11:54:17;103439.43999999999;;;10.08;96.64
54856;BME280;40748;53.168;5.800;2023-02-10T11:56:49;103442.4;;;9.86;97.96
54856;BME280;40748;53.168;5.800;2023-02-10T11:59:21;103433.37;;;10.08;94.21
54856;BME280;40748;53.168;5.800;2023-02-10T12:01:49;103436.57;;;9.95;91.34
54856;BME280;40748;53.168;5.800;2023-02-10T12:04:23;103436.57;;;9.87;91.34
54856;BME280;40748;53.168;5.800;2023-02-10T12:06:51;103426.9;;;9.59;94.11
54856;BME280;40748;53.168;5.800;2023-02-10T12:09:21;103426.68000000001;;;9.92;93.63
54856;BME280;40748;53.168;5.800;2023-02-10T12:11:49;103423.19;;;9.90;93.72
54856;BME280;40748;53.168;5.800;2023-02-10T12:14:23;103422.49999999999;;;10.07;93.22
54856;BME280;40748;53.168;5.800;2023-02-10T12:16:48;103429.87000000001;;;9.75;92.67
54856;BME280;40748;53.168;5.800;2023-02-10T12:19:19;103436.6;;;9.63;90.29
54856;BME280;40748;53.168;5.800;2023-02-10T12:21:51;103420.03;;;9.80;91.16
54856;BME280;40748;53.168;5.800;2023-02-10T12:24:25;103426.09999999999;;;9.96;91.17
54856;BME280;40748;53.168;5.800;2023-02-10T12:26:49;103420.05999999998;;;9.92;91.90
54856;BME280;40748;53.168;5.800;2023-02-10T12:29:21;103417.24999999999;;;9.87;90.80
54856;BME280;40748;53.168;5.800;2023-02-10T12:31:51;103407.43;;;10.27;91.55
54856;BME280;40748;53.168;5.800;2023-02-10T12:34:21;103407.43;;;10.39;91.55
54856;BME280;40748;53.168;5.800;2023-02-10T12:36:49;103402.22000000002;;;10.68;92.50
54856;BME280;40748;53.168;5.800;2023-02-10T13:08:05;103356.98999999999;;;12.96;86.75
54856;BME280;40748;53.168;5.800;2023-02-10T13:08:14;103356.98999999999;;;13.02;86.75
54856;BME280;40748;53.168;5.800;2023-02-10T13:10:43;103359.18999999999;;;13.09;79.27
54856;BME280;40748;53.168;5.800;2023-02-10T13:13:14;103356.79000000001;;;13.37;85.97
54856;BME280;40748;53.168;5.800;2023-02-10T13:15:43;103363.70999999999;;;13.59;83.03
54856;BME280;40748;53.168;5.800;2023-02-10T13:18:16;103364.06999999999;;;13.39;85.11
54856;BME280;40748;53.168;5.800;2023-02-10T13:20:44;103357.70999999999;;;13.76;80.21
54856;BME280;40748;53.168;5.800;2023-02-10T13:23:17;103352.06000000001;;;13.74;83.39
54856;BME280;40748;53.168;5.800;2023-02-10T13:25:46;103355.79000000001;;;13.31;77.39
54856;BME280;40748;53.168;5.800;2023-02-10T13:28:14;103342.58;;;13.97;81.10
54856;BME280;40748;53.168;5.800;2023-02-10T13:30:46;103341.52999999998;;;14.07;81.47
54856;BME280;40748;53.168;5.800;2023-02-10T13:33:14;103332.69;;;13.58;79.99
54856;BME280;40748;53.168;5.800;2023-02-10T13:35:43;103323.19;;;12.97;73.03
54856;BME280;40748;53.168;5.800;2023-02-10T13:38:14;103323.19;;;13.24;73.03
54856;BME280;40748;53.168;5.800;2023-02-10T13:59:51;103329.68000000001;;;13.19;75.34
54856;BME280;40748;53.168;5.800;2023-02-10T14:00:44;103329.68000000001;;;13.46;75.34
54856;BME280;40748;53.168;5.800;2023-02-10T14:03:19;103326.05;;;13.06;75.36
54856;BME280;40748;53.168;5.800;2023-02-10T14:05:50;103315.27;;;12.92;74.75
54856;BME280;40748;53.168;5.800;2023-02-10T14:08:13;103314.86;;;13.15;74.72
54856;BME280;40748;53.168;5.800;2023-02-10T14:10:43;103312.46;;;13.14;74.67
54856;BME280;40748;53.168;5.800;2023-02-10T14:13:21;103309.62;;;12.71;74.57
54856;BME280;40748;53.168;5.800;2023-02-10T14:15:43;103304.64;;;12.78;73.57
54856;BME280;40748;53.168;5.800;2023-02-10T14:18:20;103294.43000000001;;;12.49;74.05
54856;BME280;40748;53.168;5.800;2023-02-10T14:20:43;103287.01000000001;;;12.50;72.47
54856;BME280;40748;53.168;5.800;2023-02-10T14:23:18;103289.15999999999;;;12.36;72.37
54856;BME280;40748;53.168;5.800;2023-02-10T14:25:43;103288.88999999998;;;12.22;72.62
54856;BME280;40748;53.168;5.800;2023-02-10T14:28:17;103280.79000000001;;;12.33;72.10
54856;BME280;40748;53.168;5.800;2023-02-10T14:30:43;103276.20999999999;;;12.25;72.68
54856;BME280;40748;53.168;5.800;2023-02-10T14:33:17;103278.67000000001;;;12.20;72.32
54856;BME280;40748;53.168;5.800;2023-02-10T14:35:47;103284.97;;;11.58;71.71
54856;BME280;40748;53.168;5.800;2023-02-10T14:38:16;103287.33;;;11.46;71.95
54856;BME280;40748;53.168;5.800;2023-02-10T14:40:43;103278.89;;;11.20;72.43